GRZLY42 ETNW-ETNW
Flight info
| Callsign | GRZLY42 |
|---|---|
| Flight time | 0h 21m |
| Altitude | 2000 |
| Route | WUN DCT 523401N0091927E DCT 524743N0085851E DCT 525647N0084911E DCT 530623N0084417E DCT 532115N0083541E DCT 533255N0083536E DCT 5341440N0082950E DCT NDO DCT 533255N0083536E DCT 532115N0083541E DCT 530642N0082730E DCT 525341N0082601E DCT 524752N0083841E DCT 524055N0084837E DCT 523757N0091306E DCT 523401N0091927E DCT WUN |
| Aircraft | A400/H-SDE2E3FGHIJ4J5M1RWXY/S |
Departure
| Time | 2026-04-17 20:02 |
|---|---|
| Airport | Wunstorf Air Base (ETNW) |
Arrival
| Time | 2026-04-17 20:23 |
|---|---|
| Airport | Wunstorf Air Base (ETNW) |
| Time | Latitude | Longitude | Altitude | Speed | Heading |
|---|---|---|---|---|---|
| 2026-04-17 19:21 | 53.62129 | 8.45726 | 1356 ft | 204 kts | 195° |
| 2026-04-17 19:22 | 53.61096 | 8.45370 | 2094 ft | 187 kts | 192° |
| 2026-04-17 19:22 | 53.59783 | 8.44513 | 1710 ft | 219 kts | 204° |
| 2026-04-17 19:22 | 53.58308 | 8.43317 | 1443 ft | 249 kts | 203° |
| 2026-04-17 19:23 | 53.56630 | 8.42354 | 1307 ft | 249 kts | 197° |
| 2026-04-17 19:23 | 53.53881 | 8.41082 | 1388 ft | 193 kts | 170° |
| 2026-04-17 19:23 | 53.52629 | 8.41799 | 1381 ft | 182 kts | 147° |
| 2026-04-17 19:24 | 53.51690 | 8.43236 | 1413 ft | 177 kts | 126° |
| 2026-04-17 19:24 | 53.51243 | 8.45222 | 1405 ft | 191 kts | 92° |
| 2026-04-17 19:24 | 53.51478 | 8.47281 | 1363 ft | 170 kts | 62° |
| 2026-04-17 19:24 | 53.52240 | 8.48706 | 1270 ft | 168 kts | 33° |
| 2026-04-17 19:25 | 53.53315 | 8.49595 | 1286 ft | 177 kts | 19° |
| 2026-04-17 19:25 | 53.54423 | 8.50025 | 1186 ft | 155 kts | 7° |
| 2026-04-17 19:25 | 53.55528 | 8.50112 | 1074 ft | 161 kts | 0° |
| 2026-04-17 19:25 | 53.56760 | 8.50078 | 1275 ft | 185 kts | 1° |
| 2026-04-17 19:26 | 53.58136 | 8.50075 | 1431 ft | 202 kts | 0° |
| 2026-04-17 19:26 | 53.59641 | 8.50042 | 1632 ft | 234 kts | 359° |
| 2026-04-17 19:26 | 53.61235 | 8.50013 | 1435 ft | 223 kts | 0° |
| 2026-04-17 19:26 | 53.62786 | 8.49929 | 1355 ft | 226 kts | 355° |
| 2026-04-17 19:27 | 53.64286 | 8.49673 | 1381 ft | 204 kts | 356° |
| 2026-04-17 19:27 | 53.65666 | 8.49524 | 1341 ft | 193 kts | 355° |
| 2026-04-17 19:27 | 53.66969 | 8.49219 | 1141 ft | 186 kts | 352° |
| 2026-04-17 19:27 | 53.68226 | 8.48891 | 966 ft | 185 kts | 351° |
| 2026-04-17 19:28 | 53.69469 | 8.48558 | 923 ft | 176 kts | 355° |
| 2026-04-17 19:28 | 53.70677 | 8.48551 | 971 ft | 174 kts | 15° |
| 2026-04-17 19:28 | 53.71847 | 8.49309 | 963 ft | 189 kts | 32° |
| 2026-04-17 19:28 | 53.72992 | 8.50500 | 969 ft | 194 kts | 36° |
| 2026-04-17 19:29 | 53.74057 | 8.51776 | 927 ft | 181 kts | 39° |
| 2026-04-17 19:29 | 53.74908 | 8.53060 | 905 ft | 142 kts | 57° |
| 2026-04-17 19:29 | 53.75344 | 8.54537 | 1248 ft | 129 kts | 75° |
| 2026-04-17 19:29 | 53.75572 | 8.55942 | 1649 ft | 127 kts | 63° |
| 2026-04-17 19:30 | 53.76124 | 8.57135 | 826 ft | 123 kts | 60° |
| 2026-04-17 19:30 | 53.76199 | 8.57291 | 598 ft | 125 kts | 59° |
| 2026-04-17 19:30 | 53.76105 | 8.57744 | 818 ft | 144 kts | 81° |
| 2026-04-17 19:30 | 53.76169 | 8.59107 | 880 ft | 147 kts | 90° |
| 2026-04-17 19:31 | 53.76171 | 8.60665 | 485 ft | 127 kts | 86° |
| 2026-04-17 19:31 | 53.76366 | 8.62220 | 420 ft | 142 kts | 78° |
| 2026-04-17 19:31 | 53.76559 | 8.63839 | 209 ft | 137 kts | 82° |
| 2026-04-17 19:31 | 53.76737 | 8.65484 | 166 ft | 143 kts | 79° |
| 2026-04-17 19:32 | 53.76952 | 8.67123 | 147 ft | 146 kts | 78° |
| 2026-04-17 19:32 | 53.77160 | 8.68752 | 210 ft | 143 kts | 78° |
| 2026-04-17 19:32 | 53.77461 | 8.70325 | 296 ft | 143 kts | 65° |
| 2026-04-17 19:32 | 53.77982 | 8.71882 | 634 ft | 160 kts | 61° |
| 2026-04-17 19:33 | 53.78560 | 8.73611 | 927 ft | 177 kts | 62° |
| 2026-04-17 19:33 | 53.79249 | 8.75486 | 1097 ft | 199 kts | 58° |
| 2026-04-17 19:33 | 53.79991 | 8.77450 | 1068 ft | 195 kts | 59° |
| 2026-04-17 19:33 | 53.80731 | 8.79253 | 1104 ft | 177 kts | 55° |
| 2026-04-17 19:34 | 53.81434 | 8.80911 | 1075 ft | 174 kts | 56° |
| 2026-04-17 19:34 | 53.82124 | 8.82625 | 1005 ft | 176 kts | 59° |
| 2026-04-17 19:34 | 53.82756 | 8.84358 | 1003 ft | 171 kts | 60° |
| 2026-04-17 19:34 | 53.83366 | 8.86072 | 1068 ft | 167 kts | 68° |
| 2026-04-17 19:35 | 53.83539 | 8.87935 | 1193 ft | 168 kts | 102° |
| 2026-04-17 19:35 | 53.83007 | 8.89694 | 1223 ft | 171 kts | 136° |
| 2026-04-17 19:35 | 53.81956 | 8.90608 | 1307 ft | 169 kts | 170° |
| 2026-04-17 19:35 | 53.80710 | 8.90602 | 1096 ft | 192 kts | 188° |
| 2026-04-17 19:36 | 53.79344 | 8.90110 | 910 ft | 212 kts | 191° |
| 2026-04-17 19:36 | 53.77893 | 8.89421 | 938 ft | 220 kts | 194° |
| 2026-04-17 19:36 | 53.76473 | 8.89051 | 985 ft | 188 kts | 175° |
| 2026-04-17 19:36 | 53.75263 | 8.89399 | 1017 ft | 175 kts | 159° |
| 2026-04-17 19:37 | 53.74069 | 8.89951 | 1050 ft | 180 kts | 162° |
| 2026-04-17 19:37 | 53.72914 | 8.90380 | 1014 ft | 158 kts | 166° |
| 2026-04-17 19:37 | 53.71799 | 8.90732 | 975 ft | 174 kts | 165° |
| 2026-04-17 19:37 | 53.70582 | 8.91173 | 1023 ft | 178 kts | 161° |
| 2026-04-17 19:38 | 53.69406 | 8.91823 | 1041 ft | 181 kts | 158° |
| 2026-04-17 19:38 | 53.68197 | 8.92477 | 1123 ft | 176 kts | 156° |
| 2026-04-17 19:38 | 53.67118 | 8.93349 | 1078 ft | 171 kts | 147° |
| 2026-04-17 19:38 | 53.66080 | 8.94333 | 903 ft | 168 kts | 155° |
| 2026-04-17 19:39 | 53.64945 | 8.94931 | 739 ft | 171 kts | 162° |
| 2026-04-17 19:39 | 53.63810 | 8.95485 | 649 ft | 172 kts | 159° |
| 2026-04-17 19:39 | 53.62704 | 8.96298 | 588 ft | 174 kts | 152° |
| 2026-04-17 19:39 | 53.61644 | 8.97227 | 810 ft | 165 kts | 150° |
| 2026-04-17 19:40 | 53.60629 | 8.98155 | 986 ft | 169 kts | 152° |
| 2026-04-17 19:40 | 53.59493 | 8.98773 | 842 ft | 181 kts | 163° |
| 2026-04-17 19:40 | 53.58236 | 8.99304 | 968 ft | 189 kts | 167° |
| 2026-04-17 19:40 | 53.56897 | 8.99674 | 970 ft | 199 kts | 169° |
| 2026-04-17 19:41 | 53.55592 | 8.99993 | 830 ft | 183 kts | 171° |
| 2026-04-17 19:41 | 53.54319 | 9.00250 | 688 ft | 183 kts | 170° |
| 2026-04-17 19:41 | 53.53109 | 9.00670 | 725 ft | 173 kts | 164° |
| 2026-04-17 19:41 | 53.51951 | 9.01158 | 814 ft | 170 kts | 165° |
| 2026-04-17 19:42 | 53.50791 | 9.01650 | 1081 ft | 172 kts | 163° |
| 2026-04-17 19:42 | 53.49607 | 9.02196 | 1522 ft | 189 kts | 163° |
| 2026-04-17 19:42 | 53.48237 | 9.02821 | 1370 ft | 214 kts | 163° |
| 2026-04-17 19:42 | 53.46777 | 9.03496 | 1360 ft | 214 kts | 163° |
| 2026-04-17 19:43 | 53.45384 | 9.04136 | 1623 ft | 203 kts | 163° |
| 2026-04-17 19:43 | 53.44020 | 9.04790 | 1624 ft | 202 kts | 162° |
| 2026-04-17 19:43 | 53.42705 | 9.05354 | 1696 ft | 187 kts | 168° |
| 2026-04-17 19:43 | 53.41461 | 9.05556 | 1784 ft | 173 kts | 179° |
| 2026-04-17 19:44 | 53.40277 | 9.05301 | 1872 ft | 177 kts | 193° |
| 2026-04-17 19:44 | 53.38982 | 9.04724 | 1576 ft | 214 kts | 192° |
| 2026-04-17 19:44 | 53.37423 | 9.04491 | 1306 ft | 227 kts | 180° |
| 2026-04-17 19:44 | 53.35829 | 9.04874 | 1218 ft | 233 kts | 167° |
| 2026-04-17 19:45 | 53.34334 | 9.05540 | 1332 ft | 214 kts | 168° |
| 2026-04-17 19:45 | 53.32916 | 9.06102 | 1470 ft | 211 kts | 170° |
| 2026-04-17 19:45 | 53.31441 | 9.06656 | 1478 ft | 221 kts | 169° |
| 2026-04-17 19:45 | 53.29919 | 9.07149 | 1474 ft | 224 kts | 172° |
| 2026-04-17 19:46 | 53.28387 | 9.07571 | 1468 ft | 224 kts | 172° |
| 2026-04-17 19:46 | 53.26913 | 9.08017 | 1481 ft | 210 kts | 168° |
| 2026-04-17 19:46 | 53.25551 | 9.08575 | 1517 ft | 201 kts | 166° |
| 2026-04-17 19:46 | 53.24205 | 9.09149 | 1539 ft | 202 kts | 169° |
| 2026-04-17 19:47 | 53.22801 | 9.09636 | 1517 ft | 211 kts | 170° |
| 2026-04-17 19:47 | 53.21374 | 9.10182 | 1517 ft | 208 kts | 169° |
| 2026-04-17 19:47 | 53.19944 | 9.10715 | 1480 ft | 210 kts | 168° |
| 2026-04-17 19:47 | 53.18578 | 9.11283 | 1484 ft | 199 kts | 168° |
| 2026-04-17 19:48 | 53.17208 | 9.11834 | 1492 ft | 206 kts | 171° |
| 2026-04-17 19:48 | 53.16265 | 9.12197 | 1444 ft | 210 kts | 169° |
| 2026-04-17 19:48 | 53.14867 | 9.12650 | 1360 ft | 204 kts | 170° |
| 2026-04-17 19:48 | 53.13085 | 9.13366 | 1376 ft | 196 kts | 172° |
| 2026-04-17 19:49 | 53.12159 | 9.13643 | 1418 ft | 205 kts | 174° |
| 2026-04-17 19:49 | 53.10699 | 9.13984 | 1431 ft | 223 kts | 172° |
| 2026-04-17 19:49 | 53.09165 | 9.14404 | 1415 ft | 213 kts | 175° |
| 2026-04-17 19:49 | 53.07723 | 9.14907 | 1463 ft | 199 kts | 168° |
| 2026-04-17 19:50 | 53.06425 | 9.15417 | 1485 ft | 196 kts | 167° |
| 2026-04-17 19:50 | 53.05066 | 9.15999 | 1542 ft | 208 kts | 171° |
| 2026-04-17 19:50 | 53.03589 | 9.16450 | 1583 ft | 221 kts | 172° |
| 2026-04-17 19:50 | 53.02102 | 9.16875 | 1593 ft | 211 kts | 172° |
| 2026-04-17 19:51 | 53.00714 | 9.17360 | 1603 ft | 198 kts | 168° |
| 2026-04-17 19:51 | 52.99343 | 9.17823 | 1569 ft | 207 kts | 172° |
| 2026-04-17 19:51 | 52.97932 | 9.18264 | 1538 ft | 204 kts | 172° |
| 2026-04-17 19:51 | 52.97257 | 9.18469 | 1586 ft | 203 kts | 172° |
| 2026-04-17 19:53 | 52.97205 | 9.18485 | 1593 ft | 203 kts | 172° |
| 2026-04-17 19:53 | 52.95746 | 9.18912 | 1523 ft | 223 kts | 173° |
| 2026-04-17 19:54 | 52.94823 | 9.19154 | 1515 ft | 223 kts | 174° |
| 2026-04-17 19:54 | 52.93740 | 9.19339 | 1691 ft | 237 kts | 183° |
| 2026-04-17 19:54 | 52.92194 | 9.18720 | 2114 ft | 229 kts | 212° |
| 2026-04-17 19:54 | 52.91082 | 9.16835 | 2253 ft | 240 kts | 243° |
| 2026-04-17 19:55 | 52.90808 | 9.14129 | 2191 ft | 239 kts | 271° |
| 2026-04-17 19:55 | 52.90470 | 9.11492 | 2185 ft | 238 kts | 236° |
| 2026-04-17 19:55 | 52.89216 | 9.09694 | 2168 ft | 243 kts | 210° |
| 2026-04-17 19:55 | 52.87600 | 9.08787 | 2243 ft | 249 kts | 190° |
| 2026-04-17 19:56 | 52.85916 | 9.08878 | 2260 ft | 242 kts | 169° |
| 2026-04-17 19:56 | 52.84397 | 9.10006 | 2238 ft | 245 kts | 146° |
| 2026-04-17 19:56 | 52.83214 | 9.12105 | 2034 ft | 256 kts | 122° |
| 2026-04-17 19:56 | 52.82661 | 9.14839 | 1805 ft | 255 kts | 95° |
| 2026-04-17 19:57 | 52.82827 | 9.17756 | 1711 ft | 256 kts | 79° |
| 2026-04-17 19:57 | 52.83196 | 9.20577 | 1781 ft | 250 kts | 76° |
| 2026-04-17 19:57 | 52.83533 | 9.23382 | 1762 ft | 247 kts | 91° |
| 2026-04-17 19:57 | 52.83018 | 9.25892 | 1758 ft | 225 kts | 135° |
| 2026-04-17 19:58 | 52.81710 | 9.26911 | 1709 ft | 205 kts | 188° |
| 2026-04-17 19:58 | 52.80499 | 9.25921 | 1602 ft | 199 kts | 237° |
| 2026-04-17 19:58 | 52.80333 | 9.23793 | 1820 ft | 190 kts | 292° |
| 2026-04-17 19:58 | 52.81205 | 9.22045 | 1708 ft | 205 kts | 321° |
| 2026-04-17 19:59 | 52.82496 | 9.21208 | 1606 ft | 205 kts | 0° |
| 2026-04-17 19:59 | 52.83777 | 9.22229 | 1688 ft | 215 kts | 53° |
| 2026-04-17 19:59 | 52.84143 | 9.24586 | 1736 ft | 221 kts | 103° |
| 2026-04-17 19:59 | 52.83326 | 9.26643 | 1739 ft | 221 kts | 153° |
| 2026-04-17 20:00 | 52.81877 | 9.26972 | 1867 ft | 212 kts | 202° |
| 2026-04-17 20:00 | 52.80795 | 9.25393 | 1879 ft | 216 kts | 249° |
| 2026-04-17 20:00 | 52.80814 | 9.22942 | 1880 ft | 219 kts | 295° |
| 2026-04-17 20:00 | 52.81931 | 9.21289 | 1722 ft | 227 kts | 341° |
| 2026-04-17 20:01 | 52.83477 | 9.21523 | 1684 ft | 235 kts | 28° |
| 2026-04-17 20:01 | 52.84498 | 9.23572 | 1707 ft | 238 kts | 73° |
| 2026-04-17 20:01 | 52.84398 | 9.26241 | 1699 ft | 235 kts | 117° |
| 2026-04-17 20:01 | 52.83329 | 9.28190 | 1517 ft | 229 kts | 144° |
| 2026-04-17 20:02 | 52.82096 | 9.29774 | 1702 ft | 222 kts | 143° |
| 2026-04-17 20:02 | 52.80880 | 9.31331 | 1480 ft | 219 kts | 146° |
| 2026-04-17 20:02 | 52.79600 | 9.32525 | 1379 ft | 204 kts | 171° |
| 2026-04-17 20:02 | 52.78259 | 9.32617 | 1213 ft | 189 kts | 184° |
| 2026-04-17 20:03 | 52.76945 | 9.32570 | 1195 ft | 188 kts | 185° |
| 2026-04-17 20:03 | 52.75662 | 9.32472 | 1139 ft | 180 kts | 184° |
| 2026-04-17 20:03 | 52.74441 | 9.32344 | 1083 ft | 171 kts | 200° |
| 2026-04-17 20:03 | 52.73413 | 9.31519 | 1195 ft | 161 kts | 214° |
| 2026-04-17 20:04 | 52.72443 | 9.30599 | 1242 ft | 160 kts | 214° |
| 2026-04-17 20:04 | 52.71528 | 9.29499 | 1161 ft | 172 kts | 223° |
| 2026-04-17 20:04 | 52.70614 | 9.28032 | 1142 ft | 193 kts | 229° |
| 2026-04-17 20:04 | 52.69714 | 9.26217 | 1051 ft | 214 kts | 232° |
| 2026-04-17 20:05 | 52.68779 | 9.24218 | 1104 ft | 221 kts | 230° |
| 2026-04-17 20:05 | 52.67692 | 9.22615 | 1106 ft | 200 kts | 214° |
| 2026-04-17 20:05 | 52.66415 | 9.21602 | 1098 ft | 212 kts | 199° |
| 2026-04-17 20:05 | 52.64915 | 9.21378 | 1050 ft | 224 kts | 179° |
| 2026-04-17 20:06 | 52.63338 | 9.21663 | 932 ft | 223 kts | 170° |
| 2026-04-17 20:06 | 52.61952 | 9.22562 | 986 ft | 206 kts | 151° |
| 2026-04-17 20:06 | 52.60921 | 9.23967 | 925 ft | 187 kts | 135° |
| 2026-04-17 20:06 | 52.60003 | 9.25577 | 816 ft | 199 kts | 133° |
| 2026-04-17 20:07 | 52.59116 | 9.27298 | 964 ft | 193 kts | 129° |
| 2026-04-17 20:07 | 52.58360 | 9.28927 | 1071 ft | 175 kts | 132° |
| 2026-04-17 20:07 | 52.57574 | 9.30410 | 1135 ft | 170 kts | 132° |
| 2026-04-17 20:07 | 52.56831 | 9.31931 | 1097 ft | 174 kts | 133° |
| 2026-04-17 20:08 | 52.56054 | 9.33461 | 1100 ft | 172 kts | 131° |
| 2026-04-17 20:08 | 52.55167 | 9.34799 | 1048 ft | 169 kts | 149° |
| 2026-04-17 20:08 | 52.54135 | 9.35635 | 1082 ft | 170 kts | 175° |
| 2026-04-17 20:08 | 52.52977 | 9.35630 | 1060 ft | 147 kts | 183° |
| 2026-04-17 20:09 | 52.52100 | 9.35712 | 1639 ft | 131 kts | 180° |
| 2026-04-17 20:09 | 52.51192 | 9.35618 | 1270 ft | 132 kts | 186° |
| 2026-04-17 20:09 | 52.50176 | 9.35777 | 1088 ft | 157 kts | 172° |
| 2026-04-17 20:09 | 52.49104 | 9.35881 | 1020 ft | 153 kts | 182° |
| 2026-04-17 20:10 | 52.48020 | 9.35847 | 1060 ft | 159 kts | 183° |
| 2026-04-17 20:10 | 52.46917 | 9.35826 | 1089 ft | 156 kts | 178° |
| 2026-04-17 20:10 | 52.45902 | 9.36374 | 1060 ft | 156 kts | 148° |
| 2026-04-17 20:10 | 52.45275 | 9.37781 | 987 ft | 162 kts | 109° |
| 2026-04-17 20:11 | 52.45330 | 9.39638 | 701 ft | 171 kts | 73° |
| 2026-04-17 20:11 | 52.45622 | 9.41407 | 327 ft | 157 kts | 81° |
| 2026-04-17 20:11 | 52.45766 | 9.43121 | 259 ft | 151 kts | 83° |
| 2026-04-17 20:11 | 52.45937 | 9.44929 | 274 ft | 164 kts | 84° |
| 2026-04-17 20:12 | 52.46068 | 9.46767 | 523 ft | 168 kts | 89° |
| 2026-04-17 20:12 | 52.46157 | 9.48775 | 824 ft | 182 kts | 85° |
| 2026-04-17 20:12 | 52.46328 | 9.50860 | 1084 ft | 190 kts | 80° |
| 2026-04-17 20:12 | 52.46961 | 9.52689 | 1278 ft | 191 kts | 35° |
| 2026-04-17 20:13 | 52.48225 | 9.53500 | 1364 ft | 203 kts | 3° |
| 2026-04-17 20:13 | 52.49556 | 9.53003 | 1559 ft | 198 kts | 319° |
| 2026-04-17 20:13 | 52.50313 | 9.51180 | 1690 ft | 196 kts | 285° |
| 2026-04-17 20:13 | 52.50579 | 9.48920 | 1582 ft | 206 kts | 265° |
| 2026-04-17 20:14 | 52.50153 | 9.46631 | 1382 ft | 219 kts | 253° |
| 2026-04-17 20:14 | 52.49884 | 9.44138 | 1277 ft | 210 kts | 262° |
| 2026-04-17 20:14 | 52.49646 | 9.41838 | 1320 ft | 202 kts | 258° |
| 2026-04-17 20:14 | 52.49400 | 9.39698 | 1307 ft | 181 kts | 259° |
| 2026-04-17 20:15 | 52.49178 | 9.37770 | 1306 ft | 173 kts | 259° |
| 2026-04-17 20:15 | 52.48946 | 9.35791 | 1222 ft | 180 kts | 258° |
| 2026-04-17 20:15 | 52.48714 | 9.33760 | 1215 ft | 177 kts | 259° |
| 2026-04-17 20:15 | 52.48274 | 9.31991 | 1209 ft | 165 kts | 218° |
| 2026-04-17 20:16 | 52.47274 | 9.31656 | 1384 ft | 139 kts | 170° |
| 2026-04-17 20:16 | 52.46421 | 9.32288 | 1336 ft | 139 kts | 148° |
| 2026-04-17 20:16 | 52.45698 | 9.33383 | 1179 ft | 144 kts | 128° |
| 2026-04-17 20:16 | 52.45225 | 9.34862 | 953 ft | 149 kts | 105° |
| 2026-04-17 20:17 | 52.45198 | 9.36563 | 792 ft | 150 kts | 84° |
| 2026-04-17 20:17 | 52.45351 | 9.38258 | 653 ft | 148 kts | 82° |
| 2026-04-17 20:17 | 52.45489 | 9.39920 | 427 ft | 145 kts | 83° |
| 2026-04-17 20:17 | 52.45633 | 9.41522 | 226 ft | 139 kts | 82° |
| 2026-04-17 20:18 | 52.45759 | 9.43038 | 214 ft | 141 kts | 83° |
| 2026-04-17 20:18 | 52.45927 | 9.44785 | 512 ft | 167 kts | 82° |
| 2026-04-17 20:18 | 52.46519 | 9.46454 | 737 ft | 186 kts | 30° |
| 2026-04-17 20:18 | 52.47827 | 9.46720 | 1024 ft | 206 kts | 339° |
| 2026-04-17 20:19 | 52.48931 | 9.45170 | 1161 ft | 219 kts | 291° |
| 2026-04-17 20:19 | 52.49020 | 9.42679 | 1260 ft | 231 kts | 261° |
| 2026-04-17 20:19 | 52.48771 | 9.40040 | 1295 ft | 234 kts | 260° |
| 2026-04-17 20:19 | 52.48505 | 9.37360 | 1111 ft | 238 kts | 260° |
| 2026-04-17 20:20 | 52.48241 | 9.34745 | 1144 ft | 231 kts | 261° |
| 2026-04-17 20:20 | 52.48000 | 9.32191 | 1211 ft | 220 kts | 257° |
| 2026-04-17 20:20 | 52.47227 | 9.30245 | 1206 ft | 199 kts | 206° |
| 2026-04-17 20:20 | 52.45978 | 9.30073 | 1245 ft | 170 kts | 162° |
| 2026-04-17 20:21 | 52.45090 | 9.31161 | 1256 ft | 160 kts | 126° |
| 2026-04-17 20:21 | 52.44809 | 9.32838 | 1093 ft | 156 kts | 82° |
| 2026-04-17 20:21 | 52.45037 | 9.34544 | 932 ft | 148 kts | 83° |
| 2026-04-17 20:21 | 52.45163 | 9.36172 | 723 ft | 137 kts | 83° |
| 2026-04-17 20:22 | 52.45314 | 9.37689 | 666 ft | 137 kts | 83° |
| 2026-04-17 20:22 | 52.45449 | 9.39244 | 504 ft | 138 kts | 82° |
| 2026-04-17 20:22 | 52.45574 | 9.40800 | 310 ft | 137 kts | 83° |
| 2026-04-17 20:22 | 52.45701 | 9.42296 | 205 ft | 124 kts | 85° |
| 2026-04-17 20:23 | 52.45787 | 9.43408 | 199 ft | 57 kts | 82° |
| 2026-04-17 20:23 | 52.45815 | 9.43687 | 184 ft | 17 kts | 81° |
| 2026-04-17 20:23 | 52.45854 | 9.43787 | 181 ft | 7 kts | 6° |
| 2026-04-17 20:23 | 52.45920 | 9.43732 | 184 ft | 15 kts | 321° |
| 2026-04-17 20:24 | 52.46002 | 9.43602 | 190 ft | 12 kts | 296° |
| 2026-04-17 20:24 | 52.46002 | 9.43496 | 203 ft | 16 kts | 261° |
| 2026-04-17 20:24 | 52.45985 | 9.43313 | 185 ft | 18 kts | 261° |
| 2026-04-17 20:24 | 52.45966 | 9.43116 | 189 ft | 17 kts | 261° |
| 2026-04-17 20:25 | 52.45950 | 9.42938 | 183 ft | 14 kts | 263° |
| 2026-04-17 20:25 | 52.45945 | 9.42871 | 181 ft | 2 kts | 263° |
| 2026-04-17 20:25 | 52.45943 | 9.42830 | 185 ft | 2 kts | 274° |
| 2026-04-17 20:25 | 52.45965 | 9.42797 | 183 ft | 6 kts | 320° |
| 2026-04-17 20:26 | 52.45989 | 9.42745 | 183 ft | 5 kts | 289° |
| 2026-04-17 20:26 | 52.45988 | 9.42701 | 180 ft | 5 kts | 263° |
| 2026-04-17 20:26 | 52.45990 | 9.42652 | 180 ft | 2 kts | 298° |
| 2026-04-17 20:26 | 52.46014 | 9.42624 | 182 ft | 7 kts | 323° |
| 2026-04-17 20:27 | 52.46030 | 9.42579 | 182 ft | 3 kts | 279° |
| 2026-04-17 20:27 | 52.46026 | 9.42550 | 191 ft | 4 kts | 260° |
| 2026-04-17 20:27 | 52.46023 | 9.42519 | 183 ft | 0 kts | 260° |